sensor_id;sensor_type;location;lat;lon;timestamp;pressure;altitude;pressure_sealevel;temperature;humidity
58467;BME280;44255;49.244;7.726;2023-03-03T04:31:40;98609.00;;;-3.13;49.21
58467;BME280;44255;49.244;7.726;2023-03-03T04:34:05;98614.69;;;-3.62;50.05
58467;BME280;44255;49.244;7.726;2023-03-03T04:36:30;98622.59;;;-3.62;50.36
58467;BME280;44255;49.244;7.726;2023-03-03T04:38:55;98615.66;;;-3.74;50.35
58467;BME280;44255;49.244;7.726;2023-03-03T04:41:21;98617.16;;;-3.37;48.52
58467;BME280;44255;49.244;7.726;2023-03-03T04:43:46;98619.25;;;-3.82;50.73
58467;BME280;44255;49.244;7.726;2023-03-03T04:46:11;98619.09;;;-3.62;50.34
58467;BME280;44255;49.244;7.726;2023-03-03T04:48:36;98618.16;;;-3.53;50.18
58467;BME280;44255;49.244;7.726;2023-03-03T04:51:02;98622.78;;;-3.90;50.77
58467;BME280;44255;49.244;7.726;2023-03-03T04:53:27;98620.13;;;-3.83;51.09
58467;BME280;44255;49.244;7.726;2023-03-03T04:55:52;98621.16;;;-4.06;51.31
58467;BME280;44255;49.244;7.726;2023-03-03T04:58:18;98620.09;;;-3.82;50.23
58467;BME280;44255;49.244;7.726;2023-03-03T05:00:45;98620.34;;;-4.18;51.59
58467;BME280;44255;49.244;7.726;2023-03-03T05:03:10;98626.19;;;-3.75;50.33
58467;BME280;44255;49.244;7.726;2023-03-03T05:05:36;98627.13;;;-3.81;50.20
58467;BME280;44255;49.244;7.726;2023-03-03T05:08:01;98633.88;;;-3.44;49.28
58467;BME280;44255;49.244;7.726;2023-03-03T05:10:27;98620.56;;;-3.27;48.42
58467;BME280;44255;49.244;7.726;2023-03-03T05:12:52;98629.31;;;-3.23;48.43
58467;BME280;44255;49.244;7.726;2023-03-03T05:15:17;98628.47;;;-3.27;48.45
58467;BME280;44255;49.244;7.726;2023-03-03T05:17:43;98630.63;;;-3.76;49.62
58467;BME280;44255;49.244;7.726;2023-03-03T05:20:08;98630.63;;;-3.80;50.42
58467;BME280;44255;49.244;7.726;2023-03-03T05:22:34;98637.59;;;-3.71;49.91
58467;BME280;44255;49.244;7.726;2023-03-03T05:24:59;98636.84;;;-3.88;49.65
58467;BME280;44255;49.244;7.726;2023-03-03T05:27:24;98635.84;;;-3.71;49.63
58467;BME280;44255;49.244;7.726;2023-03-03T05:29:50;98636.66;;;-3.64;49.21
58467;BME280;44255;49.244;7.726;2023-03-03T05:32:15;98643.31;;;-3.15;47.86
58467;BME280;44255;49.244;7.726;2023-03-03T05:34:41;98644.44;;;-3.47;48.92
58467;BME280;44255;49.244;7.726;2023-03-03T05:37:06;98645.63;;;-3.92;49.74
58467;BME280;44255;49.244;7.726;2023-03-03T05:39:32;98646.50;;;-3.91;49.89
58467;BME280;44255;49.244;7.726;2023-03-03T05:41:58;98642.00;;;-3.72;49.56
58467;BME280;44255;49.244;7.726;2023-03-03T05:44:24;98647.16;;;-3.55;49.61
58467;BME280;44255;49.244;7.726;2023-03-03T05:46:49;98655.41;;;-4.11;50.06
58467;BME280;44255;49.244;7.726;2023-03-03T05:49:15;98651.47;;;-3.45;49.19
58467;BME280;44255;49.244;7.726;2023-03-03T05:51:40;98649.59;;;-3.33;48.28
58467;BME280;44255;49.244;7.726;2023-03-03T05:54:05;98656.72;;;-3.43;48.47
58467;BME280;44255;49.244;7.726;2023-03-03T05:56:30;98667.22;;;-3.38;48.40
58467;BME280;44255;49.244;7.726;2023-03-03T05:58:55;98662.06;;;-3.52;48.75
58467;BME280;44255;49.244;7.726;2023-03-03T06:01:20;98663.03;;;-3.66;48.95
58467;BME280;44255;49.244;7.726;2023-03-03T06:03:46;98661.22;;;-3.61;48.67
58467;BME280;44255;49.244;7.726;2023-03-03T06:06:11;98667.28;;;-3.45;48.32
58467;BME280;44255;49.244;7.726;2023-03-03T06:08:38;98671.00;;;-3.78;48.91
58467;BME280;44255;49.244;7.726;2023-03-03T06:11:03;98670.03;;;-3.66;48.77
58467;BME280;44255;49.244;7.726;2023-03-03T06:13:28;98680.59;;;-3.66;48.77
58467;BME280;44255;49.244;7.726;2023-03-03T06:15:54;98682.38;;;-3.71;48.99
58467;BME280;44255;49.244;7.726;2023-03-03T06:18:19;98686.63;;;-3.47;47.93
58467;BME280;44255;49.244;7.726;2023-03-03T06:20:44;98686.72;;;-3.61;48.11
58467;BME280;44255;49.244;7.726;2023-03-03T06:23:09;98688.69;;;-3.99;49.54
58467;BME280;44255;49.244;7.726;2023-03-03T06:25:34;98692.09;;;-3.83;49.00
58467;BME280;44255;49.244;7.726;2023-03-03T06:28:00;98695.59;;;-3.79;48.79
58467;BME280;44255;49.244;7.726;2023-03-03T06:30:25;98704.53;;;-4.05;49.50
58467;BME280;44255;49.244;7.726;2023-03-03T06:32:52;98706.03;;;-3.65;49.22
58467;BME280;44255;49.244;7.726;2023-03-03T06:35:17;98706.25;;;-4.01;49.61
58467;BME280;44255;49.244;7.726;2023-03-03T06:37:42;98707.78;;;-3.60;49.05
58467;BME280;44255;49.244;7.726;2023-03-03T06:40:08;98706.97;;;-3.74;48.88
58467;BME280;44255;49.244;7.726;2023-03-03T06:42:33;98708.72;;;-3.70;48.60
58467;BME280;44255;49.244;7.726;2023-03-03T06:44:58;98698.94;;;-3.54;49.08
58467;BME280;44255;49.244;7.726;2023-03-03T06:47:23;98703.25;;;-3.36;48.49
58467;BME280;44255;49.244;7.726;2023-03-03T06:49:48;98697.06;;;-3.32;47.92
58467;BME280;44255;49.244;7.726;2023-03-03T06:52:16;98706.63;;;-3.20;47.92
58467;BME280;44255;49.244;7.726;2023-03-03T06:54:43;98697.69;;;-3.03;47.71
58467;BME280;44255;49.244;7.726;2023-03-03T06:57:27;98700.25;;;-2.94;47.29
58467;BME280;44255;49.244;7.726;2023-03-03T06:59:54;98701.88;;;-2.80;47.14
58467;BME280;44255;49.244;7.726;2023-03-03T07:02:19;98702.72;;;-2.77;47.14
58467;BME280;44255;49.244;7.726;2023-03-03T07:04:45;98712.41;;;-2.77;47.36
58467;BME280;44255;49.244;7.726;2023-03-03T07:07:23;98712.31;;;-2.68;47.25
58467;BME280;44255;49.244;7.726;2023-03-03T07:09:52;98712.47;;;-2.82;47.78
58467;BME280;44255;49.244;7.726;2023-03-03T07:12:22;98711.16;;;-2.40;46.75
58467;BME280;44255;49.244;7.726;2023-03-03T07:14:50;98721.75;;;-2.43;47.13
58467;BME280;44255;49.244;7.726;2023-03-03T07:17:19;98710.53;;;-2.64;47.33
58467;BME280;44255;49.244;7.726;2023-03-03T07:19:45;98722.72;;;-2.52;47.66
58467;BME280;44255;49.244;7.726;2023-03-03T07:22:18;98714.56;;;-2.29;48.00
58467;BME280;44255;49.244;7.726;2023-03-03T07:24:45;98712.53;;;-2.08;47.07
58467;BME280;44255;49.244;7.726;2023-03-03T07:27:16;98727.41;;;-1.96;47.21
58467;BME280;44255;49.244;7.726;2023-03-03T07:29:47;98722.16;;;-2.03;47.56
58467;BME280;44255;49.244;7.726;2023-03-03T07:32:21;98725.66;;;-1.97;47.71
58467;BME280;44255;49.244;7.726;2023-03-03T07:34:48;98726.94;;;-2.37;48.74
58467;BME280;44255;49.244;7.726;2023-03-03T07:37:33;98718.91;;;-2.25;48.35
58467;BME280;44255;49.244;7.726;2023-03-03T07:39:59;98722.91;;;-1.88;48.27
58467;BME280;44255;49.244;7.726;2023-03-03T07:42:42;98728.84;;;-1.70;47.95
58467;BME280;44255;49.244;7.726;2023-03-03T07:50:33;98729.16;;;-1.31;47.16
58467;BME280;44255;49.244;7.726;2023-03-03T07:52:58;98732.53;;;-1.20;47.42
58467;BME280;44255;49.244;7.726;2023-03-03T07:57:49;98740.41;;;-1.17;47.31
58467;BME280;44255;49.244;7.726;2023-03-03T08:07:43;98744.34;;;-0.88;47.65
58467;BME280;44255;49.244;7.726;2023-03-03T08:10:25;98733.47;;;-0.69;47.71
58467;BME280;44255;49.244;7.726;2023-03-03T08:12:51;98742.63;;;-0.90;47.04
58467;BME280;44255;49.244;7.726;2023-03-03T08:15:23;98737.41;;;-1.54;49.13
58467;BME280;44255;49.244;7.726;2023-03-03T08:17:50;98747.38;;;-1.74;49.78
58467;BME280;44255;49.244;7.726;2023-03-03T08:22:52;98739.56;;;-1.83;49.49
58467;BME280;44255;49.244;7.726;2023-03-03T08:25:17;98740.25;;;-1.70;49.08
58467;BME280;44255;49.244;7.726;2023-03-03T08:27:43;98737.31;;;-1.47;48.87
58467;BME280;44255;49.244;7.726;2023-03-03T08:30:08;98735.63;;;-1.52;48.50
58467;BME280;44255;49.244;7.726;2023-03-03T08:32:33;98731.06;;;-1.42;49.15
58467;BME280;44255;49.244;7.726;2023-03-03T08:34:59;98723.03;;;-1.35;48.70
58467;BME280;44255;49.244;7.726;2023-03-03T08:37:24;98725.50;;;-1.22;48.39
58467;BME280;44255;49.244;7.726;2023-03-03T08:39:49;98723.19;;;-0.89;48.45
58467;BME280;44255;49.244;7.726;2023-03-03T08:42:14;98725.53;;;-0.70;47.75
58467;BME280;44255;49.244;7.726;2023-03-03T08:44:39;98716.63;;;-0.66;48.34
58467;BME280;44255;49.244;7.726;2023-03-03T08:47:05;98724.66;;;-0.71;48.76
58467;BME280;44255;49.244;7.726;2023-03-03T08:49:30;98722.72;;;-0.61;48.12
58467;BME280;44255;49.244;7.726;2023-03-03T08:51:55;98725.44;;;-0.19;47.58
58467;BME280;44255;49.244;7.726;2023-03-03T08:54:21;98722.03;;;-0.24;47.77
58467;BME280;44255;49.244;7.726;2023-03-03T08:56:46;98726.28;;;-0.17;47.86
58467;BME280;44255;49.244;7.726;2023-03-03T08:59:11;98728.63;;;-0.01;47.69
58467;BME280;44255;49.244;7.726;2023-03-03T09:01:37;98729.81;;;0.28;46.65
58467;BME280;44255;49.244;7.726;2023-03-03T09:04:02;98731.09;;;0.51;46.27
58467;BME280;44255;49.244;7.726;2023-03-03T09:06:28;98726.91;;;0.40;46.12
58467;BME280;44255;49.244;7.726;2023-03-03T09:08:53;98734.31;;;0.67;45.87
58467;BME280;44255;49.244;7.726;2023-03-03T09:11:21;98730.13;;;0.94;45.58
58467;BME280;44255;49.244;7.726;2023-03-03T09:13:48;98731.13;;;0.89;45.81
58467;BME280;44255;49.244;7.726;2023-03-03T09:16:17;98725.53;;;1.01;46.26
58467;BME280;44255;49.244;7.726;2023-03-03T09:18:42;98727.72;;;1.54;44.25
58467;BME280;44255;49.244;7.726;2023-03-03T09:21:15;98734.66;;;1.60;43.80
58467;BME280;44255;49.244;7.726;2023-03-03T09:23:42;98732.06;;;1.57;44.50
58467;BME280;44255;49.244;7.726;2023-03-03T09:28:40;98730.66;;;1.77;43.65
58467;BME280;44255;49.244;7.726;2023-03-03T09:31:13;98731.78;;;1.68;43.45
58467;BME280;44255;49.244;7.726;2023-03-03T09:33:42;98725.63;;;1.99;42.21
58467;BME280;44255;49.244;7.726;2023-03-03T09:36:18;98722.66;;;2.70;42.03
58467;BME280;44255;49.244;7.726;2023-03-03T09:38:45;98721.72;;;2.11;42.62
58467;BME280;44255;49.244;7.726;2023-03-03T09:49:01;98712.81;;;3.78;40.12
58467;BME280;44255;49.244;7.726;2023-03-03T09:51:46;98724.69;;;3.70;39.61
58467;BME280;44255;49.244;7.726;2023-03-03T09:54:18;98732.09;;;3.87;39.86
58467;BME280;44255;49.244;7.726;2023-03-03T09:56:49;98727.69;;;3.86;40.00
58467;BME280;44255;49.244;7.726;2023-03-03T09:59:30;98729.53;;;4.09;39.07
58467;BME280;44255;49.244;7.726;2023-03-03T10:10:42;98736.91;;;4.26;38.45
58467;BME280;44255;49.244;7.726;2023-03-03T10:20:54;98733.31;;;4.51;38.30
58467;BME280;44255;49.244;7.726;2023-03-03T10:26:20;98732.50;;;4.25;38.18
58467;BME280;44255;49.244;7.726;2023-03-03T10:34:15;98746.47;;;4.78;38.02
58467;BME280;44255;49.244;7.726;2023-03-03T10:36:45;98738.53;;;4.54;37.49
58467;BME280;44255;49.244;7.726;2023-03-03T10:44:22;98733.88;;;4.82;37.77
58467;BME280;44255;49.244;7.726;2023-03-03T10:51:55;98749.22;;;4.99;37.75
58467;BME280;44255;49.244;7.726;2023-03-03T10:59:32;98744.75;;;5.21;37.07
58467;BME280;44255;49.244;7.726;2023-03-03T11:02:02;98743.03;;;5.20;37.26
58467;BME280;44255;49.244;7.726;2023-03-03T11:07:22;98741.50;;;5.58;37.05
58467;BME280;44255;49.244;7.726;2023-03-03T11:10:00;98741.63;;;5.55;36.71
58467;BME280;44255;49.244;7.726;2023-03-03T11:12:31;98736.94;;;5.37;37.14
58467;BME280;44255;49.244;7.726;2023-03-03T11:15:22;98740.75;;;5.54;36.22
58467;BME280;44255;49.244;7.726;2023-03-03T11:22:51;98735.66;;;5.89;36.16
58467;BME280;44255;49.244;7.726;2023-03-03T11:25:31;98736.41;;;5.72;36.17
58467;BME280;44255;49.244;7.726;2023-03-03T11:28:04;98734.38;;;5.98;36.30
58467;BME280;44255;49.244;7.726;2023-03-03T11:30:33;98727.97;;;6.21;36.19
58467;BME280;44255;49.244;7.726;2023-03-03T11:45:58;98704.06;;;6.76;35.14
58467;BME280;44255;49.244;7.726;2023-03-03T11:51:11;98701.31;;;6.58;35.42
58467;BME280;44255;49.244;7.726;2023-03-03T11:56:24;98700.59;;;7.11;34.92
58467;BME280;44255;49.244;7.726;2023-03-03T11:58:59;98700.88;;;7.41;35.17
58467;BME280;44255;49.244;7.726;2023-03-03T12:04:15;98699.25;;;7.55;34.12
58467;BME280;44255;49.244;7.726;2023-03-03T12:07:01;98697.34;;;7.21;33.87
58467;BME280;44255;49.244;7.726;2023-03-03T12:12:27;98686.59;;;8.10;33.36
58467;BME280;44255;49.244;7.726;2023-03-03T12:28:21;98670.03;;;10.33;29.69
58467;BME280;44255;49.244;7.726;2023-03-03T12:30:55;98671.47;;;10.24;30.09
58467;BME280;44255;49.244;7.726;2023-03-03T12:39:37;98657.41;;;11.97;28.38
58467;BME280;44255;49.244;7.726;2023-03-03T12:41:49;98652.84;;;13.69;25.58
58467;BME280;44255;49.244;7.726;2023-03-03T12:44:21;98662.22;;;14.56;25.19
58467;BME280;44255;49.244;7.726;2023-03-03T12:46:54;98656.34;;;15.61;23.85
58467;BME280;44255;49.244;7.726;2023-03-03T12:49:21;98650.69;;;15.95;22.56
58467;BME280;44255;49.244;7.726;2023-03-03T12:54:31;98662.38;;;18.15;21.21
58467;BME280;44255;49.244;7.726;2023-03-03T12:56:59;98664.88;;;18.46;20.36
58467;BME280;44255;49.244;7.726;2023-03-03T12:59:41;98658.78;;;19.08;19.56
58467;BME280;44255;49.244;7.726;2023-03-03T13:07:37;98655.53;;;20.47;18.45
58467;BME280;44255;49.244;7.726;2023-03-03T13:15:21;98658.31;;;19.49;19.10
58467;BME280;44255;49.244;7.726;2023-03-03T13:17:50;98655.19;;;18.90;19.43
58467;BME280;44255;49.244;7.726;2023-03-03T13:20:29;98651.16;;;18.84;19.70
58467;BME280;44255;49.244;7.726;2023-03-03T13:25:34;98651.16;;;17.90;20.47
58467;BME280;44255;49.244;7.726;2023-03-03T13:28:06;98648.41;;;18.66;19.90
58467;BME280;44255;49.244;7.726;2023-03-03T13:30:34;98648.44;;;17.90;20.01
58467;BME280;44255;49.244;7.726;2023-03-03T13:33:24;98642.91;;;17.52;20.58
58467;BME280;44255;49.244;7.726;2023-03-03T13:35:53;98649.22;;;18.48;19.70
58467;BME280;44255;49.244;7.726;2023-03-03T13:38:22;98650.19;;;19.03;19.18
58467;BME280;44255;49.244;7.726;2023-03-03T13:51:03;98643.03;;;17.02;20.96
58467;BME280;44255;49.244;7.726;2023-03-03T14:06:37;98632.41;;;17.67;20.74
58467;BME280;44255;49.244;7.726;2023-03-03T14:11:53;98625.69;;;17.12;21.12
58467;BME280;44255;49.244;7.726;2023-03-03T14:16:56;98626.34;;;18.31;20.35
58467;BME280;44255;49.244;7.726;2023-03-03T14:19:33;98613.22;;;19.72;18.71
58467;BME280;44255;49.244;7.726;2023-03-03T14:24:27;98614.13;;;19.54;18.67
58467;BME280;44255;49.244;7.726;2023-03-03T14:26:54;98615.97;;;20.84;18.05
58467;BME280;44255;49.244;7.726;2023-03-03T14:31:47;98620.69;;;19.61;18.47
58467;BME280;44255;49.244;7.726;2023-03-03T14:36:38;98620.66;;;21.58;17.08
58467;BME280;44255;49.244;7.726;2023-03-03T14:41:48;98615.97;;;20.33;17.95
58467;BME280;44255;49.244;7.726;2023-03-03T14:44:20;98620.00;;;20.55;17.91
58467;BME280;44255;49.244;7.726;2023-03-03T14:46:59;98619.28;;;20.10;18.23
58467;BME280;44255;49.244;7.726;2023-03-03T14:49:29;98618.91;;;19.78;18.36
58467;BME280;44255;49.244;7.726;2023-03-03T14:52:00;98625.53;;;18.95;18.89
58467;BME280;44255;49.244;7.726;2023-03-03T14:54:27;98618.94;;;18.97;19.08
58467;BME280;44255;49.244;7.726;2023-03-03T14:56:58;98624.41;;;18.41;19.47
58467;BME280;44255;49.244;7.726;2023-03-03T14:59:24;98621.47;;;17.87;19.67
58467;BME280;44255;49.244;7.726;2023-03-03T15:04:34;98615.59;;;17.82;20.27
58467;BME280;44255;49.244;7.726;2023-03-03T15:06:59;98606.91;;;17.68;20.52
58467;BME280;44255;49.244;7.726;2023-03-03T15:09:38;98607.22;;;16.96;20.16
58467;BME280;44255;49.244;7.726;2023-03-03T15:12:17;98608.63;;;17.40;20.36
58467;BME280;44255;49.244;7.726;2023-03-03T15:14:43;98609.34;;;17.03;20.81
58467;BME280;44255;49.244;7.726;2023-03-03T15:17:16;98608.34;;;17.04;20.39
58467;BME280;44255;49.244;7.726;2023-03-03T15:19:45;98604.53;;;16.46;21.40
58467;BME280;44255;49.244;7.726;2023-03-03T15:24:56;98599.59;;;16.20;21.04
58467;BME280;44255;49.244;7.726;2023-03-03T15:27:28;98610.38;;;17.02;20.65
58467;BME280;44255;49.244;7.726;2023-03-03T15:32:27;98611.38;;;16.40;20.96
58467;BME280;44255;49.244;7.726;2023-03-03T15:34:59;98621.69;;;16.46;20.56
58467;BME280;44255;49.244;7.726;2023-03-03T15:42:41;98619.25;;;14.52;22.29
58467;BME280;44255;49.244;7.726;2023-03-03T15:50:17;98623.44;;;14.22;23.49
58467;BME280;44255;49.244;7.726;2023-03-03T15:57:49;98615.78;;;15.69;22.28
58467;BME280;44255;49.244;7.726;2023-03-03T16:00:22;98622.56;;;16.47;21.13
58467;BME280;44255;49.244;7.726;2023-03-03T16:02:53;98617.41;;;15.29;21.82
58467;BME280;44255;49.244;7.726;2023-03-03T16:15:49;98630.41;;;13.20;24.13
58467;BME280;44255;49.244;7.726;2023-03-03T16:23:52;98642.34;;;11.80;26.10
58467;BME280;44255;49.244;7.726;2023-03-03T16:26:24;98637.44;;;12.37;25.74
58467;BME280;44255;49.244;7.726;2023-03-03T16:31:36;98641.09;;;11.19;26.65
58467;BME280;44255;49.244;7.726;2023-03-03T16:34:16;98652.81;;;11.05;26.93
58467;BME280;44255;49.244;7.726;2023-03-03T16:39:45;98665.38;;;10.50;27.21
58467;BME280;44255;49.244;7.726;2023-03-03T16:42:30;98667.53;;;10.72;27.06
58467;BME280;44255;49.244;7.726;2023-03-03T16:47:48;98669.25;;;10.31;27.45
58467;BME280;44255;49.244;7.726;2023-03-03T16:55:35;98684.94;;;10.10;28.67
58467;BME280;44255;49.244;7.726;2023-03-03T17:00:39;98693.22;;;9.00;29.69
58467;BME280;44255;49.244;7.726;2023-03-03T17:05:55;98706.41;;;9.05;30.25
58467;BME280;44255;49.244;7.726;2023-03-03T17:11:16;98718.59;;;8.95;30.40
58467;BME280;44255;49.244;7.726;2023-03-03T17:16:16;98715.72;;;8.33;31.06
58467;BME280;44255;49.244;7.726;2023-03-03T17:21:17;98718.66;;;8.29;30.96
58467;BME280;44255;49.244;7.726;2023-03-03T17:23:53;98726.94;;;8.24;31.18
58467;BME280;44255;49.244;7.726;2023-03-03T17:41:27;98754.66;;;6.82;34.21
58467;BME280;44255;49.244;7.726;2023-03-03T17:46:25;98759.78;;;6.68;34.59
58467;BME280;44255;49.244;7.726;2023-03-03T17:51:30;98770.41;;;6.69;34.08
58467;BME280;44255;49.244;7.726;2023-03-03T17:54:12;98771.97;;;6.75;34.69
58467;BME280;44255;49.244;7.726;2023-03-03T17:59:12;98785.16;;;5.79;35.80
58467;BME280;44255;49.244;7.726;2023-03-03T18:01:44;98785.59;;;6.10;35.46
58467;BME280;44255;49.244;7.726;2023-03-03T18:07:01;98796.63;;;5.38;36.51
58467;BME280;44255;49.244;7.726;2023-03-03T18:19:21;98808.09;;;4.95;37.93
58467;BME280;44255;49.244;7.726;2023-03-03T18:21:54;98806.75;;;4.85;37.65
58467;BME280;44255;49.244;7.726;2023-03-03T18:24:38;98820.91;;;4.87;38.44
58467;BME280;44255;49.244;7.726;2023-03-03T18:32:39;98820.66;;;4.46;37.84
58467;BME280;44255;49.244;7.726;2023-03-03T18:37:48;98825.09;;;4.71;37.94
58467;BME280;44255;49.244;7.726;2023-03-03T18:40:17;98824.09;;;4.49;37.73
58467;BME280;44255;49.244;7.726;2023-03-03T18:42:44;98831.41;;;4.68;37.74
58467;BME280;44255;49.244;7.726;2023-03-03T18:50:31;98840.84;;;4.29;37.99
58467;BME280;44255;49.244;7.726;2023-03-03T18:55:46;98848.66;;;4.10;38.45
58467;BME280;44255;49.244;7.726;2023-03-03T19:00:40;98846.63;;;3.90;38.25
58467;BME280;44255;49.244;7.726;2023-03-03T19:03:07;98853.38;;;3.46;38.94
58467;BME280;44255;49.244;7.726;2023-03-03T19:05:48;98855.03;;;3.77;38.91
58467;BME280;44255;49.244;7.726;2023-03-03T19:08:22;98854.09;;;3.78;39.05
58467;BME280;44255;49.244;7.726;2023-03-03T19:16:04;98862.53;;;3.37;39.36
58467;BME280;44255;49.244;7.726;2023-03-03T19:18:34;98859.75;;;3.42;39.04
58467;BME280;44255;49.244;7.726;2023-03-03T19:21:01;98861.50;;;3.15;39.65
58467;BME280;44255;49.244;7.726;2023-03-03T19:26:32;98861.31;;;3.49;39.50
58467;BME280;44255;49.244;7.726;2023-03-03T19:34:09;98869.06;;;2.69;40.33
58467;BME280;44255;49.244;7.726;2023-03-03T19:39:05;98886.16;;;2.61;40.70
58467;BME280;44255;49.244;7.726;2023-03-03T19:44:06;98886.69;;;2.41;41.34
58467;BME280;44255;49.244;7.726;2023-03-03T19:49:09;98891.91;;;2.46;41.11
58467;BME280;44255;49.244;7.726;2023-03-03T19:52:40;98893.88;;;1.68;42.74
58467;BME280;44255;49.244;7.726;2023-03-03T19:57:01;98890.69;;;2.23;40.89
58467;BME280;44255;49.244;7.726;2023-03-03T19:59:46;98901.19;;;1.94;41.77
58467;BME280;44255;49.244;7.726;2023-03-03T20:15:02;98906.47;;;1.96;41.13
58467;BME280;44255;49.244;7.726;2023-03-03T20:22:32;98902.72;;;1.68;41.97
58467;BME280;44255;49.244;7.726;2023-03-03T20:25:02;98911.09;;;1.88;41.88
58467;BME280;44255;49.244;7.726;2023-03-03T20:32:46;98914.84;;;1.79;41.94
58467;BME280;44255;49.244;7.726;2023-03-03T20:35:35;98905.38;;;1.29;42.19
58467;BME280;44255;49.244;7.726;2023-03-03T20:43:42;98903.13;;;1.50;41.85
58467;BME280;44255;49.244;7.726;2023-03-03T20:46:25;98910.03;;;1.19;42.69
58467;BME280;44255;49.244;7.726;2023-03-03T20:48:57;98913.94;;;0.59;43.57
58467;BME280;44255;49.244;7.726;2023-03-03T20:54:22;98923.13;;;1.29;42.62
58467;BME280;44255;49.244;7.726;2023-03-03T20:56:55;98923.28;;;0.80;43.49
58467;BME280;44255;49.244;7.726;2023-03-03T20:59:35;98927.16;;;0.62;43.88
58467;BME280;44255;49.244;7.726;2023-03-03T21:02:27;98927.84;;;0.72;43.75
58467;BME280;44255;49.244;7.726;2023-03-03T21:07:34;98937.00;;;0.06;45.04
58467;BME280;44255;49.244;7.726;2023-03-03T21:10:10;98934.78;;;0.30;44.75
58467;BME280;44255;49.244;7.726;2023-03-03T21:12:36;98932.63;;;0.02;45.01
58467;BME280;44255;49.244;7.726;2023-03-03T21:17:45;98946.38;;;0.24;44.90
58467;BME280;44255;49.244;7.726;2023-03-03T21:22:42;98939.59;;;0.09;45.43
58467;BME280;44255;49.244;7.726;2023-03-03T21:25:09;98937.97;;;0.51;44.31
58467;BME280;44255;49.244;7.726;2023-03-03T21:27:36;98939.31;;;0.25;44.91
58467;BME280;44255;49.244;7.726;2023-03-03T21:30:06;98941.69;;;0.40;44.14
58467;BME280;44255;49.244;7.726;2023-03-03T21:32:36;98938.59;;;0.64;43.79
58467;BME280;44255;49.244;7.726;2023-03-03T21:35:03;98949.44;;;0.01;45.26
58467;BME280;44255;49.244;7.726;2023-03-03T21:37:48;98941.38;;;0.59;43.96
58467;BME280;44255;49.244;7.726;2023-03-03T21:40:17;98945.75;;;0.10;44.83
58467;BME280;44255;49.244;7.726;2023-03-03T21:42:44;98944.03;;;0.07;44.92
58467;BME280;44255;49.244;7.726;2023-03-03T21:45:10;98947.03;;;-0.14;45.36
58467;BME280;44255;49.244;7.726;2023-03-03T21:47:36;98956.44;;;0.05;45.19
58467;BME280;44255;49.244;7.726;2023-03-03T21:50:01;98950.25;;;0.06;45.10
58467;BME280;44255;49.244;7.726;2023-03-03T21:52:26;98945.66;;;0.16;44.81
58467;BME280;44255;49.244;7.726;2023-03-03T21:54:51;98951.75;;;0.20;44.48
58467;BME280;44255;49.244;7.726;2023-03-03T21:57:16;98950.69;;;0.30;43.87
58467;BME280;44255;49.244;7.726;2023-03-03T21:59:42;98944.72;;;0.67;43.20
